Time;durP1;ratioP1;P1;durP2;ratioP2;P2;SDS_P1;SDS_P2;PMS_P1;PMS_P2;Temp;Humidity;BMP_temperature;BMP_pressure;BME280_temperature;BME280_humidity;BME280_pressure;Samples;Min_cycle;Max_cycle;Signal;HPM_P1;HPM_P2
2023/05/27 00:01:12;;;;;;;12.73;8.32;;;13.80;99.90;;;;;;5101933;28;20148;-58
2023/05/27 00:03:40;;;;;;;12.07;8.63;;;13.80;99.90;;;;;;5097884;28;20495;-56
2023/05/27 00:06:07;;;;;;;14.38;8.50;;;13.80;99.90;;;;;;5093336;28;20036;-59
2023/05/27 00:08:34;;;;;;;15.35;7.50;;;13.70;99.90;;;;;;5107492;28;20050;-58
2023/05/27 00:11:01;;;;;;;11.93;8.02;;;13.70;99.90;;;;;;5104437;28;20116;-65
2023/05/27 00:13:28;;;;;;;13.40;7.57;;;13.60;99.90;;;;;;5102042;28;20047;-62
2023/05/27 00:15:55;;;;;;;16.83;7.80;;;13.60;99.90;;;;;;5129705;22;20588;-65
2023/05/27 00:18:22;;;;;;;;;;;13.50;99.90;;;;;;5131677;27;20043;-63
2023/05/27 00:20:49;;;;;;;12.23;7.55;;;13.50;99.90;;;;;;5128239;27;19919;-63
2023/05/27 00:23:16;;;;;;;15.15;7.80;;;13.50;99.90;;;;;;5126964;27;20039;-56
2023/05/27 00:25:43;;;;;;;17.40;8.52;;;13.60;99.90;;;;;;5134915;27;20541;-57
2023/05/27 00:28:10;;;;;;;13.60;7.97;;;13.60;99.90;;;;;;5133023;27;20084;-57
2023/05/27 00:30:37;;;;;;;;;;;13.60;99.90;;;;;;5128974;27;20039;-56
2023/05/27 00:33:04;;;;;;;12.07;7.28;;;13.60;99.90;;;;;;5125157;27;19920;-54
2023/05/27 00:35:30;;;;;;;10.55;8.10;;;13.60;99.90;;;;;;5125196;27;20063;-56
2023/05/27 00:37:57;;;;;;;19.33;8.77;;;13.60;99.90;;;;;;5124236;27;20058;-55
2023/05/27 00:40:28;;;;;;;12.57;7.93;;;13.50;99.90;;;;;;5111463;28;20043;-55
2023/05/27 00:42:54;;;;;;;14.25;8.18;;;13.40;99.90;;;;;;5103983;28;20055;-55
2023/05/27 00:45:21;;;;;;;13.85;8.20;;;13.40;99.90;;;;;;5125870;27;20054;-54
2023/05/27 00:47:49;;;;;;;14.57;8.27;;;13.40;99.90;;;;;;5109650;27;20043;-53
2023/05/27 00:50:18;;;;;;;10.43;7.63;;;13.30;99.90;;;;;;5116061;27;20510;-54
2023/05/27 00:52:45;;;;;;;10.30;7.43;;;13.30;99.90;;;;;;5111907;27;20407;-54
2023/05/27 00:55:12;;;;;;;11.10;7.43;;;13.30;99.90;;;;;;5113859;27;20112;-53
2023/05/27 00:57:40;;;;;;;14.25;7.97;;;13.40;99.90;;;;;;5104275;28;20093;-53
2023/05/27 01:00:11;;;;;;;14.50;8.02;;;13.40;99.90;;;;;;5131464;27;20043;-54
2023/05/27 01:02:41;;;;;;;9.80;6.63;;;13.30;99.90;;;;;;5109408;27;20496;-53
2023/05/27 01:05:13;;;;;;;13.63;7.53;;;13.30;99.90;;;;;;5116055;27;20040;-53
2023/05/27 01:08:07;;;;;;;16.10;8.25;;;13.40;99.90;;;;;;5134318;27;20402;-54
2023/05/27 01:10:47;;;;;;;11.68;7.57;;;13.30;99.90;;;;;;5120304;27;20556;-54
2023/05/27 01:13:35;;;;;;;20.17;7.95;;;13.40;99.90;;;;;;5116028;27;20078;-53
2023/05/27 01:16:16;;;;;;;14.35;7.80;;;13.30;99.90;;;;;;5134539;27;20035;-54
2023/05/27 01:18:44;;;;;;;12.73;7.65;;;13.30;99.90;;;;;;5123407;27;20388;-54
2023/05/27 01:21:15;;;;;;;15.25;8.23;;;13.30;99.90;;;;;;5133531;27;20554;-56
2023/05/27 01:23:42;;;;;;;11.30;7.50;;;13.30;99.90;;;;;;5133894;27;20047;-53
2023/05/27 01:26:09;;;;;;;15.40;8.25;;;13.30;99.90;;;;;;5112569;27;20047;-53
2023/05/27 01:28:36;;;;;;;12.88;7.80;;;13.30;99.90;;;;;;5110107;28;20488;-54
2023/05/27 01:43:03;;;;;;;12.57;7.75;;;13.30;99.90;;;;;;5128326;27;20066;-54
2023/05/27 01:45:30;;;;;;;13.73;8.02;;;13.30;99.90;;;;;;5134044;27;20046;-53
2023/05/27 01:47:57;;;;;;;14.45;8.00;;;13.30;99.90;;;;;;5113638;27;20039;-53
2023/05/27 01:50:24;;;;;;;14.55;8.50;;;13.20;99.90;;;;;;5134057;27;20096;-53
2023/05/27 01:52:51;;;;;;;13.27;8.55;;;13.10;99.90;;;;;;5107257;28;20039;-54
2023/05/27 01:55:18;;;;;;;13.65;8.55;;;13.10;99.90;;;;;;5111837;27;20036;-54
2023/05/27 01:57:45;;;;;;;17.30;9.40;;;13.10;99.90;;;;;;5106898;27;20118;-57
2023/05/27 02:00:12;;;;;;;12.32;8.07;;;13.00;99.90;;;;;;5109352;27;20479;-57
2023/05/27 02:02:42;;;;;;;15.75;8.82;;;13.10;99.90;;;;;;5133976;27;20082;-53
2023/05/27 02:05:12;;;;;;;14.48;8.38;;;13.10;99.90;;;;;;5102512;27;20499;-55
2023/05/27 02:07:39;;;;;;;12.20;7.47;;;13.10;99.90;;;;;;5115592;27;20031;-54
2023/05/27 02:10:06;;;;;;;14.48;8.63;;;13.20;99.90;;;;;;5101378;28;20089;-54
2023/05/27 02:12:33;;;;;;;;;;;13.20;99.90;;;;;;5109774;27;20445;-54
2023/05/27 02:15:00;;;;;;;13.18;7.78;;;13.20;99.90;;;;;;5100315;27;19942;-53
2023/05/27 02:17:27;;;;;;;;;;;13.20;99.90;;;;;;5109709;27;20465;-55
2023/05/27 02:19:55;;;;;;;14.15;7.82;;;13.20;99.90;;;;;;5113790;27;19984;-53
2023/05/27 02:22:22;;;;;;;15.10;8.25;;;13.20;99.90;;;;;;5098780;27;20055;-53
2023/05/27 02:24:50;;;;;;;12.75;7.88;;;13.20;99.90;;;;;;5105183;27;20058;-54
2023/05/27 02:27:17;;;;;;;18.13;7.70;;;13.20;99.90;;;;;;5106049;27;20081;-54
2023/05/27 02:29:44;;;;;;;13.98;7.45;;;13.20;99.90;;;;;;5107315;28;20453;-55
2023/05/27 02:32:11;;;;;;;;;;;13.20;99.90;;;;;;5105592;27;20047;-53
2023/05/27 02:34:43;;;;;;;14.13;7.65;;;13.20;99.90;;;;;;5109482;28;20328;-56
2023/05/27 02:37:10;;;;;;;13.65;7.45;;;13.20;99.90;;;;;;5111295;27;20453;-54
2023/05/27 02:39:38;;;;;;;13.43;7.32;;;13.20;99.90;;;;;;5096293;27;20557;-55
2023/05/27 02:42:06;;;;;;;13.43;7.97;;;13.20;99.90;;;;;;5131206;27;20043;-54
2023/05/27 02:44:33;;;;;;;18.33;9.05;;;13.20;99.90;;;;;;5108291;28;20048;-54
2023/05/27 02:47:00;;;;;;;13.10;8.48;;;13.10;99.90;;;;;;5111641;27;20409;-53
2023/05/27 02:49:27;;;;;;;15.35;8.40;;;13.10;99.90;;;;;;5113099;27;20043;-53
2023/05/27 02:51:54;;;;;;;14.07;8.40;;;13.10;99.90;;;;;;5132672;27;20035;-54
2023/05/27 02:54:21;;;;;;;14.52;8.52;;;13.00;99.90;;;;;;5119669;27;20035;-53
2023/05/27 02:56:47;;;;;;;17.35;7.75;;;12.90;99.90;;;;;;5105297;28;20562;-56
2023/05/27 02:59:14;;;;;;;13.07;8.35;;;13.00;99.90;;;;;;5112953;27;20113;-55
2023/05/27 03:01:41;;;;;;;21.38;8.90;;;12.90;99.90;;;;;;5114090;27;20146;-54
2023/05/27 03:04:08;;;;;;;17.45;9.65;;;12.90;99.90;;;;;;5102716;27;20403;-56
2023/05/27 03:06:35;;;;;;;18.20;9.70;;;12.80;99.90;;;;;;5113718;27;20047;-54
2023/05/27 03:09:03;;;;;;;;;;;12.80;99.90;;;;;;5109428;27;20051;-57
2023/05/27 03:11:29;;;;;;;15.15;9.15;;;12.80;99.90;;;;;;5109136;28;19927;-56
2023/05/27 03:13:56;;;;;;;16.83;9.77;;;12.80;99.90;;;;;;5120088;27;20114;-57
2023/05/27 03:16:25;;;;;;;15.80;9.80;;;12.80;99.90;;;;;;5132156;27;20031;-55
2023/05/27 03:18:52;;;;;;;15.55;9.50;;;12.80;99.90;;;;;;5113743;27;20039;-57
2023/05/27 03:21:18;;;;;;;18.55;10.30;;;12.80;99.90;;;;;;5126665;27;20051;-55
2023/05/27 03:23:46;;;;;;;;;;;12.80;99.90;;;;;;5113043;27;20069;-53
2023/05/27 03:26:12;;;;;;;13.93;9.23;;;12.70;99.90;;;;;;5105212;27;20368;-55
2023/05/27 03:28:40;;;;;;;18.52;10.10;;;12.70;99.90;;;;;;5113573;27;20138;-56
2023/05/27 03:31:08;;;;;;;;;;;12.70;99.90;;;;;;5113192;27;20080;-54
2023/05/27 03:33:43;;;;;;;16.90;9.75;;;12.70;99.90;;;;;;5104887;27;19919;-53
2023/05/27 03:36:10;;;;;;;15.55;10.18;;;12.70;99.90;;;;;;5113343;27;20111;-56
2023/05/27 03:38:37;;;;;;;21.17;10.77;;;12.60;99.90;;;;;;5125952;27;20038;-54
2023/05/27 03:41:04;;;;;;;21.67;10.60;;;12.60;99.90;;;;;;5112281;28;20036;-56
2023/05/27 03:43:34;;;;;;;16.73;10.13;;;12.60;99.90;;;;;;5103554;28;20067;-56
2023/05/27 03:46:01;;;;;;;20.17;10.05;;;12.60;99.90;;;;;;5119135;28;20039;-56
2023/05/27 03:48:28;;;;;;;18.35;11.23;;;12.60;99.90;;;;;;5105100;28;20523;-56
2023/05/27 03:50:55;;;;;;;15.65;10.50;;;12.60;99.90;;;;;;5102106;28;20046;-55
2023/05/27 03:53:22;;;;;;;16.42;9.68;;;12.60;99.90;;;;;;5111549;28;20069;-55
2023/05/27 03:55:49;;;;;;;20.48;10.98;;;12.60;99.90;;;;;;5113075;28;20047;-54
2023/05/27 03:58:16;;;;;;;18.98;10.35;;;12.60;99.90;;;;;;5113998;28;20488;-53
2023/05/27 04:00:43;;;;;;;17.23;11.27;;;12.60;99.90;;;;;;5103218;28;20489;-55
2023/05/27 04:03:10;;;;;;;17.65;10.68;;;12.50;99.90;;;;;;5132110;28;20087;-56
2023/05/27 04:05:37;;;;;;;18.05;10.85;;;12.40;99.90;;;;;;5110341;28;20108;-54
2023/05/27 04:08:04;;;;;;;15.90;9.73;;;12.40;99.90;;;;;;5132050;28;20057;-56
2023/05/27 04:10:31;;;;;;;16.80;8.98;;;12.40;99.90;;;;;;5111684;28;20039;-54
2023/05/27 04:12:58;;;;;;;16.27;10.25;;;12.30;99.90;;;;;;5123471;28;20043;-56
2023/05/27 04:15:26;;;;;;;18.15;9.45;;;12.30;99.90;;;;;;5118680;28;20078;-52
2023/05/27 04:17:53;;;;;;;18.58;9.43;;;12.30;99.90;;;;;;5101679;28;20131;-55
2023/05/27 04:20:20;;;;;;;16.35;9.55;;;12.30;99.90;;;;;;5130569;28;20058;-54
2023/05/27 04:22:51;;;;;;;14.45;9.20;;;12.30;99.90;;;;;;5108623;28;20074;-56
2023/05/27 04:25:19;;;;;;;16.52;9.88;;;12.30;99.90;;;;;;5112319;28;20043;-53
2023/05/27 04:28:04;;;;;;;15.50;10.23;;;12.40;99.90;;;;;;5112413;28;20080;-57
2023/05/27 04:30:34;;;;;;;16.35;10.43;;;12.40;99.90;;;;;;5101845;28;20065;-57
2023/05/27 04:33:03;;;;;;;14.85;9.23;;;12.50;99.90;;;;;;5108744;28;20043;-56
2023/05/27 04:35:31;;;;;;;16.48;10.57;;;12.50;99.90;;;;;;5105736;28;20036;-56
2023/05/27 04:38:02;;;;;;;18.75;10.60;;;12.60;99.90;;;;;;5113277;28;20552;-57
2023/05/27 04:40:38;;;;;;;17.08;10.77;;;12.60;99.90;;;;;;5110916;28;20038;-55
2023/05/27 04:43:23;;;;;;;17.77;10.77;;;12.60;99.90;;;;;;5113091;28;20043;-55
2023/05/27 04:45:49;;;;;;;18.15;11.55;;;12.70;99.90;;;;;;5104001;28;20100;-54
2023/05/27 04:48:17;;;;;;;;;;;12.70;99.90;;;;;;5109992;28;20043;-57
2023/05/27 04:50:44;;;;;;;24.45;10.88;;;12.90;99.90;;;;;;5112385;28;20002;-57
2023/05/27 04:53:11;;;;;;;21.80;11.13;;;12.90;99.90;;;;;;5122730;27;20114;-56
2023/05/27 04:55:38;;;;;;;18.48;11.38;;;13.00;99.90;;;;;;5111079;28;20097;-56
2023/05/27 04:58:05;;;;;;;20.75;12.13;;;13.10;99.90;;;;;;5130191;27;20074;-57
2023/05/27 05:00:38;;;;;;;21.85;11.95;;;13.10;99.90;;;;;;5122773;27;20469;-54
2023/05/27 05:03:06;;;;;;;19.65;11.70;;;13.20;99.90;;;;;;5130161;27;20063;-54
2023/05/27 05:05:35;;;;;;;21.92;11.55;;;13.30;99.90;;;;;;5116251;27;20067;-57
2023/05/27 05:08:01;;;;;;;;;;;13.30;99.90;;;;;;5115511;27;20055;-57
2023/05/27 05:10:30;;;;;;;22.73;12.07;;;13.40;99.90;;;;;;5108251;27;19923;-54
2023/05/27 05:12:57;;;;;;;25.23;12.20;;;13.30;99.90;;;;;;5107376;28;20050;-53
2023/05/27 05:15:25;;;;;;;22.73;11.85;;;13.40;99.90;;;;;;5107287;27;20108;-57
2023/05/27 05:17:55;;;;;;;18.13;11.45;;;13.50;99.90;;;;;;5115819;27;20050;-56
2023/05/27 05:20:25;;;;;;;18.50;12.20;;;13.60;99.90;;;;;;5099121;27;20043;-55
2023/05/27 05:22:52;;;;;;;24.70;13.32;;;13.60;99.90;;;;;;5100823;28;20051;-57
2023/05/27 05:25:18;;;;;;;18.58;11.25;;;13.70;99.90;;;;;;5090868;27;20061;-57
2023/05/27 05:27:48;;;;;;;18.85;11.77;;;13.80;99.90;;;;;;5115653;27;20380;-53
2023/05/27 05:30:15;;;;;;;22.35;11.93;;;13.80;99.90;;;;;;5114046;27;20054;-55
2023/05/27 05:32:42;;;;;;;;;;;13.80;99.90;;;;;;5110331;27;20556;-57
2023/05/27 05:35:09;;;;;;;22.35;11.80;;;13.80;99.90;;;;;;5109454;27;19942;-56
2023/05/27 05:37:39;;;;;;;25.20;13.30;;;13.80;99.90;;;;;;5107575;27;20395;-53
2023/05/27 05:40:07;;;;;;;20.83;11.73;;;13.90;99.90;;;;;;5132895;27;20377;-54
2023/05/27 05:42:37;;;;;;;21.10;12.25;;;14.00;99.90;;;;;;5107800;27;20051;-57
2023/05/27 05:45:06;;;;;;;36.70;12.77;;;14.10;99.90;;;;;;5115660;27;20054;-55
2023/05/27 05:47:33;;;;;;;20.73;11.75;;;14.20;99.90;;;;;;5105668;28;20031;-54
2023/05/27 05:50:08;;;;;;;19.05;12.18;;;14.30;99.90;;;;;;5105358;27;20415;-55
2023/05/27 05:52:36;;;;;;;26.10;12.13;;;14.30;99.90;;;;;;5109397;28;20040;-56
2023/05/27 05:55:04;;;;;;;18.08;11.10;;;14.40;99.90;;;;;;5111523;27;20058;-55
2023/05/27 05:57:32;;;;;;;21.60;11.70;;;14.40;99.90;;;;;;5107086;28;20048;-54
2023/05/27 06:00:03;;;;;;;19.30;11.07;;;14.50;99.90;;;;;;5111006;27;20514;-55
2023/05/27 06:02:32;;;;;;;18.20;10.40;;;14.50;99.90;;;;;;5120744;27;20044;-55
2023/05/27 06:04:59;;;;;;;18.02;11.13;;;14.50;99.90;;;;;;5101640;27;20043;-56
2023/05/27 06:07:26;;;;;;;23.17;11.95;;;14.50;99.90;;;;;;5095172;27;20043;-55
2023/05/27 06:10:06;;;;;;;19.85;10.93;;;14.50;99.90;;;;;;5119748;27;20055;-55
2023/05/27 06:12:38;;;;;;;17.83;10.57;;;14.60;99.90;;;;;;5111197;27;20176;-57
2023/05/27 06:15:07;;;;;;;22.42;11.05;;;14.70;99.90;;;;;;5111671;27;20032;-57
2023/05/27 06:17:40;;;;;;;18.58;10.98;;;14.70;99.90;;;;;;5103544;28;20116;-57
2023/05/27 06:20:07;;;;;;;22.90;13.15;;;14.70;99.90;;;;;;5109194;27;20464;-57
2023/05/27 06:22:34;;;;;;;;;;;14.90;99.90;;;;;;5101777;27;20047;-58
2023/05/27 06:25:20;;;;;;;18.42;10.93;;;14.80;99.90;;;;;;5132343;27;19968;-54
2023/05/27 06:27:59;;;;;;;19.42;11.05;;;14.90;99.90;;;;;;5115024;27;20364;-55
2023/05/27 06:30:26;;;;;;;21.98;10.35;;;15.00;99.90;;;;;;5102517;28;20089;-54
2023/05/27 06:32:55;;;;;;;22.05;10.82;;;15.10;99.90;;;;;;5105217;27;20031;-56
2023/05/27 06:35:23;;;;;;;24.85;11.55;;;15.10;99.90;;;;;;5114269;27;20380;-56
2023/05/27 06:37:50;;;;;;;17.63;10.80;;;15.10;99.90;;;;;;5113749;27;20043;-58
2023/05/27 06:40:18;;;;;;;17.27;10.70;;;15.10;99.90;;;;;;5105275;27;20484;-56
2023/05/27 06:42:45;;;;;;;;;;;15.30;99.90;;;;;;5106448;27;20046;-56
2023/05/27 06:45:27;;;;;;;22.35;11.27;;;15.30;99.90;;;;;;5112726;27;19964;-58
2023/05/27 06:48:07;;;;;;;21.88;10.88;;;15.40;99.90;;;;;;5106235;27;20050;-57
2023/05/27 06:50:34;;;;;;;20.65;10.65;;;15.50;99.90;;;;;;5109207;27;20491;-58
2023/05/27 06:53:01;;;;;;;20.05;11.20;;;15.60;99.90;;;;;;5105818;27;20040;-56
2023/05/27 06:55:34;;;;;;;26.13;11.68;;;15.60;99.90;;;;;;5098693;27;20035;-53
2023/05/27 06:58:20;;;;;;;20.73;11.45;;;15.60;99.90;;;;;;5132295;27;20407;-55
2023/05/27 07:00:56;;;;;;;20.35;11.80;;;15.70;99.90;;;;;;5111524;27;20047;-58
2023/05/27 07:03:49;;;;;;;22.17;11.75;;;15.70;99.90;;;;;;5122363;27;20050;-57
2023/05/27 07:06:22;;;;;;;21.45;11.80;;;15.80;99.90;;;;;;5108266;27;20039;-58
2023/05/27 07:08:51;;;;;;;17.27;10.45;;;15.90;99.90;;;;;;5109942;27;20054;-56
2023/05/27 07:11:22;;;;;;;19.80;10.60;;;15.90;99.90;;;;;;5104874;27;20043;-58
2023/05/27 07:13:52;;;;;;;22.58;11.75;;;15.80;99.90;;;;;;5107302;27;20471;-56
2023/05/27 07:16:22;;;;;;;18.27;11.13;;;15.90;99.90;;;;;;5109607;27;20059;-58
2023/05/27 07:18:50;;;;;;;19.33;12.02;;;16.00;99.90;;;;;;5106764;27;20039;-55
2023/05/27 07:21:18;;;;;;;19.00;11.77;;;16.20;99.90;;;;;;5106996;27;20050;-58
2023/05/27 07:23:44;;;;;;;18.50;11.57;;;16.20;99.90;;;;;;5105204;28;20101;-58
2023/05/27 07:26:30;;;;;;;19.15;11.75;;;16.30;99.90;;;;;;5109571;27;20065;-54
2023/05/27 07:29:00;;;;;;;18.88;11.63;;;16.40;99.90;;;;;;5110457;27;20078;-56
2023/05/27 07:31:48;;;;;;;22.63;13.02;;;16.40;99.90;;;;;;5094942;27;20043;-58
2023/05/27 07:34:17;;;;;;;21.10;11.88;;;16.50;99.90;;;;;;5110971;27;20503;-54
2023/05/27 07:36:44;;;;;;;18.65;12.32;;;16.40;99.90;;;;;;5111002;27;20039;-55
2023/05/27 07:39:11;;;;;;;24.13;12.65;;;16.30;99.90;;;;;;5111857;27;20496;-58
2023/05/27 07:41:38;;;;;;;21.63;13.50;;;16.30;99.90;;;;;;5106509;28;20131;-56
2023/05/27 07:44:05;;;;;;;20.10;11.93;;;16.60;99.90;;;;;;5106277;28;20089;-56
2023/05/27 07:46:32;;;;;;;20.70;13.15;;;16.80;99.90;;;;;;5110399;28;20036;-58
2023/05/27 07:48:59;;;;;;;21.77;12.70;;;17.00;99.90;;;;;;5094565;28;20054;-58
2023/05/27 07:51:26;;;;;;;24.17;13.82;;;17.20;99.90;;;;;;5095934;28;20036;-55
2023/05/27 07:53:54;;;;;;;23.40;13.82;;;17.20;99.90;;;;;;5110596;28;20070;-54
2023/05/27 07:56:22;;;;;;;24.02;13.57;;;17.20;99.90;;;;;;5103014;28;20032;-55
2023/05/27 07:58:49;;;;;;;22.13;13.85;;;17.10;99.90;;;;;;5106974;28;20114;-55
2023/05/27 08:01:17;;;;;;;21.33;14.18;;;17.10;99.90;;;;;;5108859;28;20031;-57
2023/05/27 08:03:49;;;;;;;26.80;14.18;;;17.10;99.90;;;;;;5109472;28;20491;-56
2023/05/27 08:06:17;;;;;;;23.25;14.73;;;17.10;99.90;;;;;;5127358;28;20045;-57
2023/05/27 08:09:16;;;;;;;24.83;13.90;;;17.30;99.90;;;;;;5101118;28;20539;-57
2023/05/27 08:12:02;;;;;;;22.38;13.15;;;17.30;99.90;;;;;;5108918;28;20043;-57
2023/05/27 08:14:43;;;;;;;21.02;13.25;;;17.40;99.90;;;;;;5125005;28;20054;-55
2023/05/27 08:17:28;;;;;;;20.20;13.07;;;17.40;99.90;;;;;;5125030;28;20168;-58
2023/05/27 08:20:16;;;;;;;22.48;13.10;;;17.30;99.90;;;;;;5108758;28;20123;-57
2023/05/27 08:22:54;;;;;;;22.52;12.93;;;17.30;99.90;;;;;;5113194;28;20054;-57
2023/05/27 08:25:45;;;;;;;20.58;13.15;;;17.30;99.90;;;;;;5103097;28;20049;-57
2023/05/27 08:28:16;;;;;;;24.70;13.40;;;17.10;99.90;;;;;;5129217;27;20678;-55
2023/05/27 08:31:04;;;;;;;22.60;12.07;;;17.10;99.90;;;;;;5083235;27;20130;-58
2023/05/27 08:33:36;;;;;;;23.63;12.27;;;17.30;99.90;;;;;;5109768;27;20035;-57
2023/05/27 08:36:04;;;;;;;20.20;12.10;;;17.60;99.90;;;;;;5109393;27;20538;-57
2023/05/27 08:38:31;;;;;;;20.60;12.25;;;17.50;99.90;;;;;;5108334;27;20031;-56
2023/05/27 08:41:15;;;;;;;21.27;12.15;;;17.60;99.90;;;;;;5109359;27;20051;-54
2023/05/27 08:43:44;;;;;;;21.77;11.90;;;17.60;99.90;;;;;;5105324;27;20052;-57
2023/05/27 08:46:13;;;;;;;27.48;12.45;;;17.70;99.90;;;;;;5125232;27;20043;-57
2023/05/27 08:48:41;;;;;;;19.27;11.00;;;18.00;99.90;;;;;;5108652;27;20074;-58
2023/05/27 08:51:09;;;;;;;16.70;10.50;;;18.20;99.90;;;;;;5108396;27;20104;-56
2023/05/27 08:53:37;;;;;;;20.92;10.73;;;18.40;99.90;;;;;;5109696;27;20043;-58
2023/05/27 08:56:06;;;;;;;20.77;10.82;;;18.60;99.90;;;;;;5108026;27;20040;-55
2023/05/27 08:58:36;;;;;;;16.65;10.85;;;18.30;99.90;;;;;;5111533;27;20135;-58
2023/05/27 09:01:04;;;;;;;16.52;9.80;;;18.40;99.90;;;;;;5108911;27;20058;-55
2023/05/27 09:03:32;;;;;;;16.08;9.90;;;18.30;99.90;;;;;;5097893;27;20388;-55
2023/05/27 09:06:03;;;;;;;15.07;10.05;;;18.30;99.90;;;;;;5116796;27;20058;-56
2023/05/27 09:08:30;;;;;;;20.65;10.07;;;18.20;99.90;;;;;;5131684;27;20043;-55
2023/05/27 09:11:38;;;;;;;18.90;9.68;;;18.40;99.90;;;;;;5126694;27;20445;-58
2023/05/27 09:14:04;;;;;;;17.60;10.30;;;18.60;99.90;;;;;;5125539;27;20441;-55
2023/05/27 09:16:31;;;;;;;22.42;10.05;;;18.80;99.90;;;;;;5125012;27;20047;-56
2023/05/27 09:18:58;;;;;;;23.10;10.35;;;18.90;99.90;;;;;;5125973;27;20027;-57
2023/05/27 09:21:26;;;;;;;18.40;9.75;;;19.00;99.90;;;;;;5130546;27;20082;-58
2023/05/27 09:23:59;;;;;;;17.05;10.18;;;19.20;99.90;;;;;;5129651;27;20047;-56
2023/05/27 09:26:27;;;;;;;19.63;9.15;;;19.30;99.90;;;;;;5126300;27;20039;-57
2023/05/27 09:28:54;;;;;;;20.30;9.85;;;19.40;99.90;;;;;;5125644;27;20036;-56
2023/05/27 09:31:22;;;;;;;19.45;9.45;;;19.50;99.90;;;;;;5125904;27;20061;-58
2023/05/27 09:33:49;;;;;;;17.20;9.95;;;19.50;99.90;;;;;;5124738;27;20070;-56
2023/05/27 09:36:21;;;;;;;14.90;9.68;;;19.60;99.90;;;;;;5133828;27;20035;-55
2023/05/27 09:38:48;;;;;;;19.35;9.52;;;19.80;99.90;;;;;;5131931;27;20039;-58
2023/05/27 09:41:24;;;;;;;20.63;9.80;;;19.80;99.90;;;;;;5132621;27;20035;-56
2023/05/27 09:43:55;;;;;;;23.88;9.85;;;19.70;99.90;;;;;;5130065;27;20039;-54
2023/05/27 09:46:24;;;;;;;18.48;9.55;;;19.70;99.90;;;;;;5133071;27;20092;-57
2023/05/27 09:48:51;;;;;;;19.80;9.70;;;19.90;99.90;;;;;;5126089;27;20035;-58
2023/05/27 09:51:18;;;;;;;16.77;9.20;;;19.90;99.90;;;;;;5123355;27;20059;-57
2023/05/27 09:53:47;;;;;;;14.20;9.00;;;19.90;99.90;;;;;;5114871;27;20035;-58
2023/05/27 09:56:14;;;;;;;21.58;9.20;;;20.00;99.90;;;;;;5122697;27;20035;-56
2023/05/27 09:58:41;;;;;;;17.65;9.95;;;20.10;99.90;;;;;;5116074;27;20127;-58
2023/05/27 10:01:08;;;;;;;15.20;9.02;;;20.00;99.90;;;;;;5128320;27;20031;-58
2023/05/27 10:03:37;;;;;;;14.68;9.45;;;20.10;99.90;;;;;;5131331;27;20043;-54
2023/05/27 10:06:05;;;;;;;19.30;9.40;;;20.10;99.90;;;;;;5124113;27;20392;-58
2023/05/27 10:08:33;;;;;;;16.75;8.98;;;20.20;99.90;;;;;;5133589;27;20045;-58
2023/05/27 10:11:00;;;;;;;15.30;8.85;;;20.20;99.90;;;;;;5133164;27;20076;-58
2023/05/27 10:13:27;;;;;;;15.20;9.00;;;20.00;99.90;;;;;;5117053;27;20402;-54
2023/05/27 10:15:54;;;;;;;17.77;9.65;;;20.10;99.90;;;;;;5123675;27;20407;-54
2023/05/27 10:18:27;;;;;;;14.68;9.02;;;20.20;99.90;;;;;;5129907;27;20047;-58
2023/05/27 10:20:56;;;;;;;16.75;8.52;;;20.40;99.90;;;;;;5123586;27;20530;-57
2023/05/27 10:23:34;;;;;;;17.40;9.10;;;20.40;99.90;;;;;;5123081;27;20043;-58
2023/05/27 10:26:07;;;;;;;15.20;8.57;;;20.40;99.90;;;;;;5127235;27;20476;-58
2023/05/27 10:28:41;;;;;;;15.50;8.90;;;20.50;99.90;;;;;;5127240;27;20399;-56
2023/05/27 10:31:09;;;;;;;16.70;9.02;;;20.60;99.90;;;;;;5128663;27;20043;-58
2023/05/27 10:33:38;;;;;;;17.75;8.68;;;20.70;99.90;;;;;;5132182;27;20051;-56
2023/05/27 10:36:10;;;;;;;22.38;8.50;;;20.70;99.90;;;;;;5131360;27;20088;-58
2023/05/27 10:38:37;;;;;;;16.20;9.15;;;20.70;99.90;;;;;;5124258;27;20035;-57
2023/05/27 10:41:06;;;;;;;18.02;7.85;;;20.80;99.90;;;;;;5117546;27;20044;-58
2023/05/27 10:43:34;;;;;;;14.82;9.00;;;20.90;99.90;;;;;;5123757;27;20043;-57
2023/05/27 10:46:09;;;;;;;17.65;8.68;;;21.00;99.90;;;;;;5109701;27;20031;-56
2023/05/27 10:48:39;;;;;;;14.40;9.27;;;20.90;99.90;;;;;;5127799;27;20069;-58
2023/05/27 10:51:06;;;;;;;13.23;7.85;;;20.90;99.90;;;;;;5126269;27;20053;-56
2023/05/27 10:53:36;;;;;;;14.98;9.00;;;20.90;99.90;;;;;;5130379;27;20372;-57
2023/05/27 10:56:03;;;;;;;17.98;8.88;;;21.10;99.90;;;;;;5126706;27;20052;-58
2023/05/27 10:58:34;;;;;;;15.23;9.38;;;21.10;99.90;;;;;;5124689;27;20086;-57
2023/05/27 11:01:08;;;;;;;12.63;8.73;;;21.10;99.90;;;;;;5124394;27;20035;-57
2023/05/27 11:03:41;;;;;;;15.63;7.82;;;21.10;99.90;;;;;;5124905;27;20476;-56
2023/05/27 11:06:07;;;;;;;14.45;8.40;;;21.10;99.90;;;;;;5131794;27;20039;-58
2023/05/27 11:08:34;;;;;;;11.95;7.85;;;21.20;99.90;;;;;;5131080;27;20372;-56
2023/05/27 11:11:12;;;;;;;12.65;8.23;;;21.30;99.90;;;;;;5129785;27;20043;-58
2023/05/27 11:13:42;;;;;;;17.23;8.48;;;21.40;99.90;;;;;;5126285;27;20076;-58
2023/05/27 11:16:14;;;;;;;13.57;8.20;;;21.30;99.90;;;;;;5125340;27;20681;-58
2023/05/27 11:18:45;;;;;;;13.27;7.95;;;21.40;99.90;;;;;;5124386;27;20051;-57
2023/05/27 11:21:15;;;;;;;15.27;8.40;;;21.50;99.90;;;;;;5124015;27;20063;-57
2023/05/27 11:23:47;;;;;;;17.77;8.25;;;21.50;99.90;;;;;;5130873;27;20041;-58
2023/05/27 11:26:25;;;;;;;15.32;7.82;;;21.50;99.90;;;;;;5119274;27;20519;-56
2023/05/27 11:28:54;;;;;;;;;;;21.60;99.90;;;;;;5128304;27;20031;-58
2023/05/27 11:31:26;;;;;;;15.38;8.23;;;21.60;99.90;;;;;;5127239;27;19926;-56
2023/05/27 11:33:52;;;;;;;13.93;7.57;;;21.60;99.90;;;;;;5128583;27;20027;-56
2023/05/27 11:36:23;;;;;;;12.38;7.78;;;21.60;99.90;;;;;;5124548;27;20039;-56
2023/05/27 11:38:52;;;;;;;16.92;7.07;;;21.30;99.90;;;;;;5126402;27;20487;-56
2023/05/27 11:41:22;;;;;;;15.90;8.20;;;21.30;99.90;;;;;;5124004;27;20043;-56
2023/05/27 11:44:12;;;;;;;15.10;7.35;;;21.70;99.90;;;;;;5124159;27;20043;-58
2023/05/27 11:46:42;;;;;;;15.75;7.72;;;21.90;99.90;;;;;;5118300;27;20671;-56
2023/05/27 11:49:11;;;;;;;13.98;7.97;;;22.20;99.90;;;;;;5129209;27;20068;-59
2023/05/27 11:51:40;;;;;;;15.13;7.35;;;22.20;99.90;;;;;;5128708;27;20450;-55
2023/05/27 11:54:15;;;;;;;11.23;7.13;;;22.30;99.90;;;;;;5129163;27;20040;-58
2023/05/27 11:56:41;;;;;;;14.15;7.55;;;22.30;99.90;;;;;;5128222;28;20039;-57
2023/05/27 11:59:08;;;;;;;15.13;8.18;;;22.30;99.90;;;;;;5132216;28;20031;-58
2023/05/27 12:01:35;;;;;;;12.02;7.50;;;22.40;99.90;;;;;;5124767;27;20406;-55
2023/05/27 12:04:01;;;;;;;13.85;6.70;;;22.20;99.90;;;;;;5128822;27;20096;-57
2023/05/27 12:06:28;;;;;;;10.50;6.72;;;22.30;99.90;;;;;;5131251;27;20044;-58
2023/05/27 12:08:55;;;;;;;9.73;7.55;;;22.50;99.90;;;;;;5130398;27;20519;-57
2023/05/27 12:11:22;;;;;;;15.65;7.43;;;22.70;99.90;;;;;;5127648;27;20517;-58
2023/05/27 12:13:51;;;;;;;14.73;7.28;;;22.80;99.90;;;;;;5112014;27;20035;-56
2023/05/27 12:16:17;;;;;;;10.93;6.90;;;22.80;99.90;;;;;;5123705;27;20391;-58
2023/05/27 12:18:45;;;;;;;14.18;6.90;;;22.80;99.90;;;;;;5132299;27;20043;-58
2023/05/27 12:21:13;;;;;;;12.15;7.57;;;23.00;99.90;;;;;;5123765;27;20379;-57
2023/05/27 12:23:39;;;;;;;9.18;5.88;;;23.00;99.90;;;;;;5135294;27;20030;-58
2023/05/27 12:26:06;;;;;;;15.95;7.82;;;23.10;99.90;;;;;;5130874;27;20047;-57
2023/05/27 12:28:33;;;;;;;13.10;6.28;;;23.10;99.90;;;;;;5124021;27;20582;-58
2023/05/27 12:31:00;;;;;;;10.85;6.90;;;23.10;99.90;;;;;;5121008;27;20039;-59
2023/05/27 12:33:27;;;;;;;10.93;6.38;;;23.10;99.30;;;;;;5134655;27;20092;-56
2023/05/27 12:35:54;;;;;;;10.25;6.40;;;23.10;99.90;;;;;;5127421;27;20088;-55
2023/05/27 12:38:21;;;;;;;10.73;7.05;;;23.40;99.90;;;;;;5126604;27;20046;-58
2023/05/27 12:40:48;;;;;;;15.30;7.43;;;23.60;99.20;;;;;;5126259;27;20039;-58
2023/05/27 12:43:17;;;;;;;13.73;6.80;;;23.70;99.20;;;;;;5134339;27;20100;-55
2023/05/27 12:45:45;;;;;;;14.65;6.85;;;23.80;99.90;;;;;;5134207;27;20027;-55
2023/05/27 12:48:12;;;;;;;12.18;6.78;;;23.70;98.20;;;;;;5125573;27;20031;-58
2023/05/27 12:50:39;;;;;;;9.80;6.40;;;23.60;98.40;;;;;;5134552;27;20399;-58
2023/05/27 12:53:08;;;;;;;13.40;6.60;;;23.50;99.30;;;;;;5126038;27;20049;-58
2023/05/27 12:55:36;;;;;;;11.73;6.47;;;23.50;99.30;;;;;;5132094;27;20067;-56
2023/05/27 12:58:03;;;;;;;11.40;5.78;;;23.50;98.50;;;;;;5130031;27;20043;-58
2023/05/27 13:00:31;;;;;;;8.95;6.20;;;23.40;97.80;;;;;;5134341;27;20039;-57
2023/05/27 13:02:57;;;;;;;9.73;6.50;;;23.50;97.80;;;;;;5125966;27;20110;-59